Time;durP1;ratioP1;P1;durP2;ratioP2;P2;SDS_P1;SDS_P2;PMS_P1;PMS_P2;Temp;Humidity;BMP_temperature;BMP_pressure;BME280_temperature;BME280_humidity;BME280_pressure;Samples;Min_cycle;Max_cycle;Signal;HPM_P1;HPM_P2
2023/02/22 00:00:22;;;;;;;116.10;44.88;;;6.80;99.90;;;;;;5010950;28;20897;-74
2023/02/22 00:02:58;;;;;;;124.97;46.83;;;6.90;99.90;;;;;;5010494;28;20897;-73
2023/02/22 00:05:25;;;;;;;123.10;46.95;;;7.00;99.90;;;;;;5010779;28;20397;-72
2023/02/22 00:07:51;;;;;;;111.90;44.43;;;7.00;99.90;;;;;;5009383;28;20397;-73
2023/02/22 00:10:20;;;;;;;111.83;42.80;;;7.10;99.90;;;;;;5010436;28;20432;-74
2023/02/22 00:12:49;;;;;;;130.82;44.83;;;7.10;99.90;;;;;;5010169;28;20389;-74
2023/02/22 00:15:16;;;;;;;109.43;43.28;;;7.10;99.90;;;;;;5012063;28;20851;-73
2023/02/22 00:17:42;;;;;;;121.45;43.78;;;7.00;99.90;;;;;;5014417;28;20447;-73
2023/02/22 00:20:12;;;;;;;133.73;46.58;;;6.90;99.90;;;;;;5014116;28;20397;-73
2023/02/22 00:22:40;;;;;;;147.88;45.58;;;6.80;99.90;;;;;;5014850;28;20458;-75
2023/02/22 00:25:06;;;;;;;122.30;43.13;;;6.70;99.90;;;;;;5014383;28;20393;-74
2023/02/22 00:27:31;;;;;;;153.18;45.05;;;6.80;99.90;;;;;;5013665;28;20400;-75
2023/02/22 00:29:57;;;;;;;216.47;43.17;;;6.60;99.90;;;;;;5014412;28;20417;-76
2023/02/22 00:32:23;;;;;;;157.13;42.05;;;6.50;99.90;;;;;;5014543;28;20388;-73
2023/02/22 00:34:52;;;;;;;153.10;40.70;;;6.50;99.90;;;;;;5014600;28;20925;-74
2023/02/22 00:37:19;;;;;;;172.45;41.58;;;6.40;99.90;;;;;;5014724;28;20469;-75
2023/02/22 00:39:49;;;;;;;174.27;39.67;;;6.40;99.90;;;;;;5014391;28;20391;-76
2023/02/22 00:42:16;;;;;;;209.45;41.50;;;6.40;99.90;;;;;;5012624;28;20928;-75
2023/02/22 00:44:42;;;;;;;186.02;39.00;;;6.40;99.90;;;;;;5014689;28;20378;-73
2023/02/22 00:47:08;;;;;;;175.73;40.53;;;6.40;99.90;;;;;;5014535;28;20464;-75
2023/02/22 00:49:34;;;;;;;157.60;33.40;;;6.30;99.90;;;;;;5014312;28;20412;-73
2023/02/22 00:52:00;;;;;;;199.32;34.55;;;6.40;99.90;;;;;;5014083;28;20761;-75
2023/02/22 00:54:25;;;;;;;149.73;34.38;;;6.40;99.90;;;;;;5014673;28;20443;-74
2023/02/22 00:56:51;;;;;;;144.17;32.50;;;6.20;99.90;;;;;;5013583;28;20424;-75
2023/02/22 00:59:17;;;;;;;82.13;31.00;;;6.20;99.90;;;;;;5014640;28;20476;-74
2023/02/22 01:01:42;;;;;;;66.78;30.70;;;6.60;99.90;;;;;;5013389;28;20404;-74
2023/02/22 01:04:09;;;;;;;74.80;27.85;;;6.70;99.90;;;;;;5015075;28;20411;-73
2023/02/22 01:06:35;;;;;;;84.95;26.70;;;6.50;99.90;;;;;;5017012;28;20381;-76
2023/02/22 01:09:01;;;;;;;128.68;25.85;;;6.50;99.90;;;;;;5019035;28;20496;-74
2023/02/22 01:11:27;;;;;;;133.23;25.75;;;6.40;99.90;;;;;;5019647;28;20393;-75
2023/02/22 01:13:54;;;;;;;89.15;25.10;;;6.20;99.90;;;;;;5022046;28;20396;-76
2023/02/22 01:16:20;;;;;;;125.32;25.88;;;6.20;99.90;;;;;;5023607;28;20385;-74
2023/02/22 01:18:46;;;;;;;128.02;27.02;;;6.20;99.90;;;;;;5019253;28;20415;-75
2023/02/22 01:21:11;;;;;;;116.10;27.67;;;6.10;99.90;;;;;;5013773;28;20933;-75
2023/02/22 01:23:37;;;;;;;151.83;29.27;;;6.10;99.90;;;;;;5014651;28;20384;-76
2023/02/22 01:26:04;;;;;;;256.63;32.33;;;6.00;99.90;;;;;;5014086;28;20480;-75
2023/02/22 01:28:31;;;;;;;108.18;27.70;;;6.00;99.90;;;;;;5016216;28;20444;-74
2023/02/22 01:30:57;;;;;;;227.20;32.65;;;6.00;99.90;;;;;;5017029;28;20382;-74
2023/02/22 01:33:23;;;;;;;137.85;30.17;;;6.00;99.90;;;;;;5016768;28;20385;-75
2023/02/22 01:35:49;;;;;;;176.63;31.77;;;6.00;99.90;;;;;;5023453;28;20389;-76
2023/02/22 01:38:15;;;;;;;184.20;31.70;;;6.10;99.90;;;;;;5023588;28;20384;-75
2023/02/22 01:40:45;;;;;;;240.38;35.55;;;6.00;99.90;;;;;;5021841;28;20409;-76
2023/02/22 01:43:21;;;;;;;144.68;31.27;;;6.10;99.90;;;;;;5024359;28;20790;-74
2023/02/22 01:46:04;;;;;;;137.65;31.33;;;6.00;99.90;;;;;;5028976;28;20779;-74
2023/02/22 01:48:43;;;;;;;79.68;29.40;;;6.00;99.90;;;;;;5028909;28;20436;-75
2023/02/22 01:51:16;;;;;;;71.57;28.58;;;6.10;99.90;;;;;;5029356;28;20370;-74
2023/02/22 01:53:51;;;;;;;69.80;26.60;;;6.60;99.90;;;;;;5027443;28;20426;-75
2023/02/22 01:56:18;;;;;;;90.03;26.93;;;6.70;99.90;;;;;;5022807;28;20401;-75
2023/02/22 01:58:48;;;;;;;171.50;29.80;;;6.70;99.90;;;;;;5022125;28;20396;-74
2023/02/22 02:01:15;;;;;;;89.93;28.65;;;6.50;99.90;;;;;;5013245;28;20378;-73
2023/02/22 02:03:41;;;;;;;174.55;29.80;;;6.50;99.90;;;;;;5012420;28;20374;-73
2023/02/22 02:06:12;;;;;;;101.95;29.00;;;6.50;99.90;;;;;;5012083;28;20890;-75
2023/02/22 02:09:00;;;;;;;80.80;27.98;;;6.40;99.90;;;;;;5011702;28;20432;-75
2023/02/22 02:11:26;;;;;;;95.63;28.37;;;6.80;99.90;;;;;;5011695;28;20409;-73
2023/02/22 02:13:54;;;;;;;111.35;31.02;;;6.80;99.90;;;;;;5012107;28;20377;-75
2023/02/22 02:16:26;;;;;;;203.68;34.35;;;6.60;99.90;;;;;;5011696;28;20384;-76
2023/02/22 02:18:53;;;;;;;309.65;38.53;;;6.50;99.90;;;;;;5012101;28;20871;-75
2023/02/22 02:21:24;;;;;;;142.35;30.90;;;6.40;99.90;;;;;;5011661;28;20804;-76
2023/02/22 02:24:01;;;;;;;220.50;32.63;;;6.60;99.90;;;;;;5011893;28;20388;-74
2023/02/22 02:26:53;;;;;;;196.55;31.98;;;6.50;99.90;;;;;;5012095;28;20370;-75
2023/02/22 02:29:46;;;;;;;184.07;32.50;;;6.40;99.90;;;;;;4988832;28;20413;-75
2023/02/22 02:32:26;;;;;;;269.10;36.60;;;6.50;99.90;;;;;;5010134;28;20399;-74
2023/02/22 02:34:57;;;;;;;114.60;29.77;;;6.50;99.90;;;;;;5011531;28;20690;-74
2023/02/22 02:37:32;;;;;;;159.45;30.05;;;6.60;99.90;;;;;;5010980;28;20396;-74
2023/02/22 02:40:17;;;;;;;98.82;30.45;;;6.50;99.90;;;;;;5011569;28;20420;-75
2023/02/22 02:42:53;;;;;;;108.20;30.70;;;6.50;99.90;;;;;;5011437;28;20902;-74
2023/02/22 02:45:28;;;;;;;108.70;30.50;;;6.60;99.90;;;;;;5011154;28;20473;-73
2023/02/22 02:47:58;;;;;;;142.65;29.52;;;6.70;99.90;;;;;;5011664;28;20870;-74
2023/02/22 02:50:46;;;;;;;158.47;31.90;;;6.90;99.90;;;;;;5011026;28;20398;-74
2023/02/22 02:53:16;;;;;;;119.67;30.43;;;6.80;99.90;;;;;;5011439;28;20504;-75
2023/02/22 02:55:41;;;;;;;152.90;30.67;;;6.80;99.90;;;;;;5011858;28;20471;-74
2023/02/22 02:58:07;;;;;;;102.18;29.58;;;6.70;99.90;;;;;;5012848;28;20389;-74
2023/02/22 03:00:38;;;;;;;270.33;37.58;;;6.70;99.90;;;;;;5010117;28;20395;-73
2023/02/22 03:03:17;;;;;;;163.07;32.05;;;6.60;99.90;;;;;;5011070;28;20378;-74
2023/02/22 03:06:01;;;;;;;102.63;31.17;;;6.60;99.90;;;;;;5011422;28;20431;-74
2023/02/22 03:08:30;;;;;;;72.85;28.95;;;6.60;99.90;;;;;;5011221;28;20397;-74
2023/02/22 03:11:15;;;;;;;147.77;30.98;;;6.90;99.90;;;;;;5010826;28;20378;-75
2023/02/22 03:13:54;;;;;;;156.77;28.90;;;6.90;99.90;;;;;;5009767;28;20389;-74
2023/02/22 03:16:33;;;;;;;135.85;31.00;;;6.80;99.90;;;;;;5010911;28;20460;-74
2023/02/22 03:19:11;;;;;;;104.28;29.30;;;6.80;99.90;;;;;;5010784;28;20778;-76
2023/02/22 03:21:50;;;;;;;147.53;32.10;;;6.70;99.90;;;;;;5010695;28;20420;-74
2023/02/22 03:24:21;;;;;;;104.57;29.88;;;6.60;99.90;;;;;;5011014;28;20399;-74
2023/02/22 03:26:55;;;;;;;116.80;29.05;;;6.80;99.90;;;;;;5010871;28;20822;-74
2023/02/22 03:29:25;;;;;;;88.60;28.67;;;6.70;99.90;;;;;;5010889;28;20405;-75
2023/02/22 03:32:00;;;;;;;111.72;29.63;;;6.60;99.90;;;;;;5010609;28;20851;-76
2023/02/22 03:34:39;;;;;;;150.20;31.27;;;6.60;99.90;;;;;;5010948;28;20409;-73
2023/02/22 03:37:13;;;;;;;132.25;29.92;;;6.60;99.90;;;;;;4993104;28;20417;-74
2023/02/22 03:39:40;;;;;;;102.80;29.67;;;6.70;99.90;;;;;;5010796;28;20381;-75
2023/02/22 03:42:13;;;;;;;200.50;34.28;;;6.60;99.90;;;;;;5011654;28;20400;-75
2023/02/22 03:44:41;;;;;;;138.40;30.73;;;6.60;99.90;;;;;;5010975;28;20412;-76
2023/02/22 03:47:12;;;;;;;117.72;30.65;;;6.60;99.90;;;;;;5011251;28;20448;-74
2023/02/22 03:50:05;;;;;;;106.80;29.90;;;6.70;99.90;;;;;;5014277;28;20826;-75
2023/02/22 03:52:33;;;;;;;120.93;29.52;;;6.70;99.90;;;;;;5014706;28;20396;-74
2023/02/22 03:54:59;;;;;;;97.27;30.20;;;6.70;99.90;;;;;;5015101;28;20891;-74
2023/02/22 03:57:33;;;;;;;102.90;29.50;;;6.70;99.90;;;;;;5013171;28;20381;-75
2023/02/22 03:59:59;;;;;;;91.88;29.17;;;6.70;99.90;;;;;;5014548;28;20420;-74
2023/02/22 04:02:25;;;;;;;76.30;29.02;;;6.60;99.90;;;;;;5014041;28;20393;-75
2023/02/22 04:04:50;;;;;;;106.35;32.00;;;6.60;99.90;;;;;;5014376;28;20408;-75
2023/02/22 04:07:17;;;;;;;116.20;32.45;;;6.60;99.90;;;;;;5014462;28;20492;-73
2023/02/22 04:09:42;;;;;;;101.40;32.30;;;6.70;99.90;;;;;;5013900;28;20409;-73
2023/02/22 04:12:08;;;;;;;91.53;32.60;;;6.70;99.90;;;;;;5013702;28;20384;-74
2023/02/22 04:14:33;;;;;;;83.93;33.83;;;6.70;99.90;;;;;;5014014;28;20384;-75
2023/02/22 04:16:59;;;;;;;83.90;32.15;;;6.80;99.90;;;;;;5013993;28;20384;-74
2023/02/22 04:19:24;;;;;;;72.60;30.40;;;6.90;99.90;;;;;;5014070;28;20403;-74
2023/02/22 04:21:50;;;;;;;85.00;30.75;;;7.00;99.90;;;;;;5013950;28;20440;-75
2023/02/22 04:24:16;;;;;;;90.55;33.05;;;6.90;99.90;;;;;;5014403;28;20864;-74
2023/02/22 04:26:41;;;;;;;91.90;33.10;;;6.90;99.90;;;;;;5014158;28;20401;-73
2023/02/22 04:29:07;;;;;;;92.50;34.22;;;6.70;99.90;;;;;;5013995;28;20408;-74
2023/02/22 04:31:33;;;;;;;79.97;33.40;;;6.80;99.90;;;;;;5013425;28;20423;-74
2023/02/22 04:33:59;;;;;;;95.03;34.75;;;6.80;99.90;;;;;;5020266;28;20380;-74
2023/02/22 04:36:25;;;;;;;96.38;37.00;;;6.80;99.90;;;;;;5024302;28;20388;-73
2023/02/22 04:38:52;;;;;;;118.20;37.80;;;6.80;99.90;;;;;;5023921;28;20814;-74
2023/02/22 04:41:18;;;;;;;107.50;37.90;;;6.80;99.90;;;;;;5022575;28;20495;-73
2023/02/22 04:43:44;;;;;;;86.30;37.10;;;6.80;99.90;;;;;;5026247;28;20415;-75
2023/02/22 04:46:10;;;;;;;104.30;36.80;;;6.80;99.90;;;;;;5029936;28;20396;-74
2023/02/22 04:48:35;;;;;;;87.88;34.63;;;6.70;99.90;;;;;;5028082;28;20429;-74
2023/02/22 04:51:01;;;;;;;90.93;34.80;;;6.90;99.90;;;;;;5026583;28;20431;-73
2023/02/22 04:53:27;;;;;;;88.70;34.73;;;6.80;99.90;;;;;;5013306;28;20392;-73
2023/02/22 04:55:52;;;;;;;92.13;34.63;;;6.80;99.90;;;;;;5014269;28;20400;-74
2023/02/22 04:58:18;;;;;;;82.43;33.73;;;6.90;99.90;;;;;;5019887;28;20525;-74
2023/02/22 05:00:43;;;;;;;93.50;36.70;;;6.90;99.90;;;;;;5017894;28;20388;-74
2023/02/22 05:03:09;;;;;;;87.30;34.80;;;6.80;99.90;;;;;;5013448;28;20784;-74
2023/02/22 05:05:35;;;;;;;78.50;33.20;;;6.90;99.90;;;;;;5012009;28;20393;-73
2023/02/22 05:08:00;;;;;;;92.13;32.87;;;7.00;99.90;;;;;;5013421;28;20392;-75
2023/02/22 05:10:26;;;;;;;86.03;33.53;;;7.00;99.90;;;;;;5011691;28;20440;-76
2023/02/22 05:12:51;;;;;;;80.57;34.20;;;6.90;99.90;;;;;;5013188;28;20388;-74
2023/02/22 05:15:20;;;;;;;73.73;32.00;;;6.90;99.90;;;;;;5011781;28;20381;-73
2023/02/22 05:17:46;;;;;;;85.80;32.93;;;6.80;99.90;;;;;;5020895;28;20898;-75
2023/02/22 05:20:20;;;;;;;83.78;32.17;;;6.80;99.90;;;;;;5025909;28;20392;-74
2023/02/22 05:22:46;;;;;;;93.65;32.38;;;6.70;99.90;;;;;;5026200;28;20401;-74
2023/02/22 05:25:11;;;;;;;85.18;31.05;;;6.70;99.90;;;;;;5027936;28;20407;-75
2023/02/22 05:27:37;;;;;;;91.32;32.00;;;6.70;99.90;;;;;;5026107;28;20396;-74
2023/02/22 05:30:04;;;;;;;83.30;29.77;;;6.60;99.90;;;;;;5026521;28;20497;-73
2023/02/22 05:32:30;;;;;;;65.83;29.23;;;6.60;99.90;;;;;;5026696;28;20785;-75
2023/02/22 05:34:55;;;;;;;77.37;30.03;;;6.60;99.90;;;;;;5026668;28;20389;-74
2023/02/22 05:37:21;;;;;;;64.77;27.43;;;6.40;99.90;;;;;;5027136;28;20389;-73
2023/02/22 05:39:46;;;;;;;61.13;27.33;;;6.50;99.90;;;;;;5027186;28;20397;-74
2023/02/22 05:42:12;;;;;;;69.10;27.77;;;6.50;99.90;;;;;;5025870;28;20397;-74
2023/02/22 05:44:37;;;;;;;76.93;30.77;;;6.40;99.90;;;;;;5026922;28;20440;-76
2023/02/22 05:47:03;;;;;;;73.33;27.80;;;6.50;99.90;;;;;;5023954;28;20885;-75
2023/02/22 05:49:28;;;;;;;70.53;28.88;;;6.30;99.90;;;;;;5019397;28;20412;-74
2023/02/22 05:51:58;;;;;;;62.75;27.35;;;6.20;99.90;;;;;;5016042;28;20799;-74
2023/02/22 05:54:24;;;;;;;60.40;27.37;;;6.10;99.90;;;;;;5025092;28;20405;-75
2023/02/22 05:56:49;;;;;;;63.53;28.08;;;6.20;99.90;;;;;;5025152;28;20407;-74
2023/02/22 05:59:15;;;;;;;65.57;28.70;;;6.10;99.90;;;;;;5018724;28;20817;-74
2023/02/22 06:01:40;;;;;;;63.65;27.52;;;6.10;99.90;;;;;;5017768;28;20790;-75
2023/02/22 06:04:06;;;;;;;59.45;27.52;;;6.00;99.90;;;;;;5012196;28;20807;-75
2023/02/22 06:06:32;;;;;;;60.38;28.63;;;5.90;99.90;;;;;;5013070;28;20420;-73
2023/02/22 06:08:57;;;;;;;59.47;27.47;;;5.90;99.90;;;;;;5010971;28;20464;-75
2023/02/22 06:11:23;;;;;;;57.67;27.37;;;6.00;99.90;;;;;;5011741;28;20463;-73
2023/02/22 06:13:52;;;;;;;64.53;28.20;;;5.90;99.90;;;;;;5012487;28;20587;-75
2023/02/22 06:16:22;;;;;;;58.97;28.00;;;5.90;99.90;;;;;;5012106;28;20377;-74
2023/02/22 06:18:48;;;;;;;63.92;28.00;;;5.80;99.90;;;;;;5016300;28;20370;-74
2023/02/22 06:21:14;;;;;;;58.05;27.17;;;5.90;99.90;;;;;;5010772;28;20766;-74
2023/02/22 06:23:39;;;;;;;58.08;26.55;;;5.90;99.90;;;;;;5011432;28;20415;-73
2023/02/22 06:26:05;;;;;;;52.80;26.40;;;5.80;99.90;;;;;;5012101;28;20478;-73
2023/02/22 06:28:30;;;;;;;50.13;25.08;;;5.70;99.90;;;;;;5021523;28;20407;-73
2023/02/22 06:30:56;;;;;;;57.27;27.30;;;5.80;99.90;;;;;;5019447;28;20508;-73
2023/02/22 06:33:21;;;;;;;57.60;27.33;;;5.70;99.90;;;;;;5012469;28;20471;-73
2023/02/22 06:35:47;;;;;;;61.17;27.33;;;5.60;99.90;;;;;;5011709;28;20489;-74
2023/02/22 06:38:21;;;;;;;55.80;26.40;;;5.50;99.90;;;;;;5011139;28;20470;-74
2023/02/22 06:40:46;;;;;;;58.20;28.43;;;5.50;99.90;;;;;;5011201;28;20472;-73
2023/02/22 06:43:12;;;;;;;58.60;29.30;;;5.40;99.90;;;;;;5010745;28;20468;-73
2023/02/22 06:45:37;;;;;;;58.13;29.80;;;5.40;99.90;;;;;;5010930;28;20388;-73
2023/02/22 06:48:03;;;;;;;63.43;30.80;;;5.40;99.90;;;;;;5010485;28;20397;-73
2023/02/22 06:50:30;;;;;;;55.80;30.08;;;5.40;99.90;;;;;;5010970;28;20416;-74
2023/02/22 06:52:56;;;;;;;59.83;30.15;;;5.50;99.90;;;;;;5010937;28;20822;-73
2023/02/22 06:55:25;;;;;;;54.38;29.75;;;5.50;99.90;;;;;;5026135;28;20478;-74
2023/02/22 06:57:51;;;;;;;60.80;29.95;;;5.50;99.90;;;;;;5030762;28;20383;-74
2023/02/22 07:00:19;;;;;;;58.22;30.45;;;5.50;99.90;;;;;;5030631;28;20509;-74
2023/02/22 07:02:47;;;;;;;53.55;27.20;;;5.50;99.90;;;;;;5030480;28;20422;-74
2023/02/22 07:05:14;;;;;;;53.58;26.45;;;5.50;99.90;;;;;;5030839;28;20391;-76
2023/02/22 07:07:39;;;;;;;50.15;25.50;;;5.50;99.90;;;;;;5025317;28;20432;-76
2023/02/22 07:10:07;;;;;;;43.67;23.77;;;5.50;99.90;;;;;;5022770;28;20790;-72
2023/02/22 07:12:34;;;;;;;47.45;23.85;;;5.50;99.90;;;;;;5022416;28;20404;-73
2023/02/22 07:15:00;;;;;;;46.27;23.27;;;5.60;99.90;;;;;;5023092;28;20433;-73
2023/02/22 07:17:25;;;;;;;38.00;22.73;;;5.70;99.90;;;;;;5010436;28;20417;-73
2023/02/22 07:19:51;;;;;;;42.30;22.33;;;5.70;99.90;;;;;;5010785;28;20399;-73
2023/02/22 07:22:16;;;;;;;43.25;22.35;;;5.70;99.90;;;;;;5010210;28;20405;-73
2023/02/22 07:24:42;;;;;;;44.15;22.23;;;5.80;99.90;;;;;;5010724;28;20396;-73
2023/02/22 07:27:08;;;;;;;38.78;21.67;;;6.00;99.90;;;;;;5010639;28;20736;-73
2023/02/22 07:29:34;;;;;;;39.67;22.03;;;6.00;99.90;;;;;;5014558;28;20766;-75
2023/02/22 07:32:01;;;;;;;41.55;21.35;;;6.00;99.90;;;;;;5030549;28;20406;-73
2023/02/22 07:34:26;;;;;;;38.25;20.92;;;6.00;99.90;;;;;;5031714;28;20383;-74
2023/02/22 07:36:52;;;;;;;43.23;21.63;;;6.20;99.90;;;;;;5025637;28;20404;-73
2023/02/22 07:39:17;;;;;;;40.90;21.30;;;6.20;99.90;;;;;;5009772;28;20401;-73
2023/02/22 07:41:43;;;;;;;36.07;20.60;;;6.30;99.90;;;;;;5010675;28;20400;-73
2023/02/22 07:44:08;;;;;;;39.70;20.63;;;6.40;99.90;;;;;;5011059;28;20440;-73
2023/02/22 07:46:34;;;;;;;39.72;20.83;;;6.50;99.90;;;;;;5010937;28;20759;-72
2023/02/22 07:48:59;;;;;;;37.88;20.73;;;6.40;99.90;;;;;;5012929;28;20408;-74
2023/02/22 07:51:25;;;;;;;38.60;21.05;;;6.50;99.90;;;;;;5010839;28;20475;-75
2023/02/22 07:53:51;;;;;;;40.92;22.23;;;6.60;99.90;;;;;;5011371;28;20750;-73
2023/02/22 07:56:17;;;;;;;37.37;21.13;;;6.60;99.90;;;;;;5011751;28;20468;-74
2023/02/22 07:58:42;;;;;;;40.20;20.10;;;6.80;99.90;;;;;;5013433;28;20507;-74
2023/02/22 08:01:09;;;;;;;36.13;19.40;;;6.90;99.40;;;;;;5011181;28;20389;-73
2023/02/22 08:03:36;;;;;;;34.35;20.73;;;7.00;97.60;;;;;;5011414;28;20901;-73
2023/02/22 08:06:04;;;;;;;32.58;19.55;;;7.00;97.40;;;;;;5017001;28;20449;-74
2023/02/22 08:08:30;;;;;;;36.67;21.08;;;7.10;96.50;;;;;;5011411;28;20400;-73
2023/02/22 08:10:56;;;;;;;43.17;22.25;;;7.20;96.60;;;;;;5011053;28;20393;-74
2023/02/22 08:13:22;;;;;;;33.67;20.35;;;7.40;96.50;;;;;;5017893;28;20394;-73
2023/02/22 08:15:50;;;;;;;35.22;20.10;;;7.50;95.50;;;;;;5030278;28;20383;-74
2023/02/22 08:18:17;;;;;;;38.60;21.52;;;7.70;93.90;;;;;;5030812;28;20406;-74
2023/02/22 08:20:45;;;;;;;35.70;20.15;;;7.80;92.60;;;;;;5030053;28;20864;-75
2023/02/22 08:23:12;;;;;;;35.92;19.98;;;7.90;90.70;;;;;;5031529;28;20533;-73
2023/02/22 08:25:37;;;;;;;31.70;19.55;;;8.00;90.10;;;;;;5030740;28;20948;-73
2023/02/22 08:28:09;;;;;;;37.05;21.20;;;8.20;87.30;;;;;;5030295;28;20399;-73
2023/02/22 08:30:36;;;;;;;35.78;20.20;;;8.30;86.90;;;;;;5029868;28;20414;-73
2023/02/22 08:33:02;;;;;;;34.75;20.35;;;8.50;82.00;;;;;;5029459;28;20390;-73
2023/02/22 08:35:30;;;;;;;33.08;19.55;;;8.60;79.30;;;;;;5031686;28;20784;-74
2023/02/22 08:37:59;;;;;;;33.45;19.80;;;8.70;79.00;;;;;;5033340;28;20781;-73
2023/02/22 08:40:27;;;;;;;31.73;18.73;;;8.80;78.00;;;;;;5031894;28;20398;-74
2023/02/22 08:42:54;;;;;;;35.72;19.40;;;9.00;76.50;;;;;;5033486;28;20402;-74
2023/02/22 08:45:20;;;;;;;35.25;19.80;;;9.00;75.60;;;;;;5031863;28;20490;-72
2023/02/22 08:47:45;;;;;;;34.08;19.35;;;9.10;75.00;;;;;;5015578;28;20492;-72
2023/02/22 08:50:20;;;;;;;33.50;18.70;;;9.20;73.90;;;;;;5012933;28;20404;-72
2023/02/22 08:52:46;;;;;;;33.30;18.92;;;9.30;73.00;;;;;;5012796;28;20381;-73
2023/02/22 08:55:12;;;;;;;33.42;19.15;;;9.40;72.40;;;;;;5013413;28;20473;-73
2023/02/22 08:57:37;;;;;;;31.42;19.00;;;9.50;69.20;;;;;;5013309;28;20389;-72
2023/02/22 09:00:04;;;;;;;31.95;19.20;;;9.70;68.50;;;;;;5013472;28;20385;-71
2023/02/22 09:02:30;;;;;;;32.75;19.02;;;9.80;66.80;;;;;;5013554;28;20393;-76
2023/02/22 09:04:55;;;;;;;38.27;19.53;;;9.90;65.80;;;;;;5014052;28;20396;-74
2023/02/22 09:07:21;;;;;;;29.67;18.83;;;10.00;65.80;;;;;;5028225;28;20395;-71
2023/02/22 09:09:46;;;;;;;34.47;19.17;;;10.20;62.00;;;;;;5033547;28;20440;-75
2023/02/22 09:12:13;;;;;;;31.27;19.40;;;10.20;60.30;;;;;;5032381;28;20384;-73
2023/02/22 09:14:38;;;;;;;33.97;19.80;;;10.30;60.70;;;;;;5033185;28;20383;-72
2023/02/22 09:17:04;;;;;;;34.23;21.00;;;10.30;60.20;;;;;;5031664;28;20540;-73
2023/02/22 09:19:30;;;;;;;34.87;19.53;;;10.30;61.40;;;;;;5032753;28;20460;-73
2023/02/22 09:21:57;;;;;;;38.67;21.63;;;10.40;60.40;;;;;;5032154;28;20450;-73
2023/02/22 09:24:23;;;;;;;37.10;20.08;;;10.60;58.10;;;;;;5032471;28;20393;-72
2023/02/22 09:26:55;;;;;;;39.50;23.30;;;10.70;57.80;;;;;;5030985;28;20537;-73
2023/02/22 09:29:22;;;;;;;31.27;19.43;;;10.70;57.30;;;;;;5030319;28;20405;-73
2023/02/22 09:31:49;;;;;;;32.00;19.58;;;10.80;56.40;;;;;;5031033;28;20379;-74
2023/02/22 09:34:16;;;;;;;35.70;21.58;;;10.70;56.60;;;;;;5032063;28;20383;-74
2023/02/22 09:36:42;;;;;;;37.70;21.27;;;10.80;56.80;;;;;;5033066;28;20437;-72
2023/02/22 09:39:10;;;;;;;35.72;21.67;;;11.00;54.60;;;;;;5032686;28;20383;-75
2023/02/22 09:41:54;;;;;;;37.20;22.45;;;11.00;56.00;;;;;;5032614;28;20390;-72
2023/02/22 09:44:23;;;;;;;35.65;21.25;;;11.00;56.70;;;;;;5018654;28;20463;-73
2023/02/22 09:46:53;;;;;;;34.92;19.90;;;11.00;56.00;;;;;;5022488;28;20432;-72
2023/02/22 09:49:38;;;;;;;39.40;21.02;;;11.10;54.90;;;;;;5010519;28;20415;-73
2023/02/22 09:52:10;;;;;;;34.97;22.13;;;11.10;54.80;;;;;;5027818;28;20904;-71
2023/02/22 09:54:51;;;;;;;34.08;21.30;;;11.20;55.60;;;;;;5030558;28;20425;-73
2023/02/22 09:57:39;;;;;;;40.73;21.40;;;11.40;51.90;;;;;;5030681;28;20383;-74
2023/02/22 10:00:20;;;;;;;36.70;21.35;;;11.50;49.50;;;;;;5031360;28;20390;-73
2023/02/22 10:02:53;;;;;;;37.45;20.55;;;11.50;49.90;;;;;;5026731;28;20412;-75
2023/02/22 10:05:26;;;;;;;36.20;20.52;;;11.60;48.30;;;;;;5016373;28;20396;-74
2023/02/22 10:08:04;;;;;;;37.10;20.65;;;11.60;46.60;;;;;;5016749;28;20487;-72
2023/02/22 10:10:44;;;;;;;36.73;19.83;;;11.70;46.90;;;;;;5014191;28;20902;-73
2023/02/22 10:13:53;;;;;;;33.10;20.52;;;11.60;46.30;;;;;;5011433;28;20396;-73
2023/02/22 10:16:44;;;;;;;37.58;20.20;;;11.60;46.40;;;;;;5022494;28;20390;-75
2023/02/22 10:19:34;;;;;;;33.40;20.95;;;11.60;47.00;;;;;;5030036;28;20379;-74
2023/02/22 10:22:24;;;;;;;39.15;20.10;;;11.80;47.90;;;;;;5029196;28;20828;-73
2023/02/22 10:24:50;;;;;;;31.58;19.50;;;12.00;44.80;;;;;;5029100;28;20887;-72
2023/02/22 10:27:27;;;;;;;32.53;19.10;;;12.20;43.10;;;;;;5030287;28;20394;-73
2023/02/22 10:30:03;;;;;;;39.38;20.95;;;12.30;43.20;;;;;;5030242;28;20411;-73
2023/02/22 10:32:41;;;;;;;39.33;19.08;;;12.30;42.30;;;;;;5027751;28;20791;-73
2023/02/22 10:35:17;;;;;;;30.30;17.65;;;12.20;40.10;;;;;;5030141;28;20788;-74
2023/02/22 10:37:43;;;;;;;34.65;18.92;;;12.30;39.90;;;;;;5024512;28;20401;-75
2023/02/22 10:40:21;;;;;;;31.40;18.52;;;12.40;40.10;;;;;;5021948;28;20403;-74
2023/02/22 10:42:49;;;;;;;30.48;18.23;;;12.60;40.10;;;;;;5023574;28;20400;-74
2023/02/22 10:45:23;;;;;;;30.25;18.75;;;12.60;38.60;;;;;;5022852;28;20395;-75
2023/02/22 10:47:53;;;;;;;31.53;19.20;;;12.80;37.60;;;;;;5029192;28;20414;-75
2023/02/22 10:50:19;;;;;;;32.83;18.50;;;12.90;37.30;;;;;;5029237;28;20406;-75
2023/02/22 10:52:45;;;;;;;34.95;18.70;;;13.00;36.50;;;;;;5030173;28;20405;-74
2023/02/22 10:55:14;;;;;;;29.57;17.63;;;13.10;36.10;;;;;;5029830;28;20544;-75
2023/02/22 10:57:42;;;;;;;32.72;17.63;;;13.10;35.20;;;;;;5029892;28;20426;-73
2023/02/22 11:00:25;;;;;;;32.45;19.10;;;13.20;35.40;;;;;;5031517;28;20438;-73
2023/02/22 11:03:02;;;;;;;34.60;18.75;;;13.40;35.10;;;;;;5026706;28;20508;-74
2023/02/22 11:05:37;;;;;;;31.77;19.90;;;13.60;33.70;;;;;;5014129;28;20395;-76
2023/02/22 11:08:21;;;;;;;30.80;16.90;;;13.60;33.20;;;;;;5017790;28;20726;-75
2023/02/22 11:11:19;;;;;;;31.77;18.25;;;13.60;33.00;;;;;;5030000;28;20422;-75
2023/02/22 11:13:56;;;;;;;35.75;19.65;;;13.80;33.00;;;;;;5031241;28;20395;-74
2023/02/22 11:16:47;;;;;;;32.20;18.33;;;14.10;32.50;;;;;;5029969;28;20394;-74
2023/02/22 11:19:21;;;;;;;33.63;17.90;;;14.00;31.90;;;;;;5031813;28;20434;-75
2023/02/22 11:21:50;;;;;;;42.53;18.05;;;14.20;31.10;;;;;;5031456;28;20399;-74
2023/02/22 11:24:17;;;;;;;28.90;17.30;;;14.20;31.10;;;;;;5031993;28;20387;-73
2023/02/22 11:26:47;;;;;;;26.60;15.95;;;14.20;30.00;;;;;;5033566;28;20391;-74
2023/02/22 11:29:36;;;;;;;24.60;14.98;;;14.30;29.90;;;;;;5033934;28;20414;-74
2023/02/22 11:32:13;;;;;;;26.50;15.30;;;14.40;29.30;;;;;;5033080;28;20479;-74
2023/02/22 11:34:41;;;;;;;27.27;15.40;;;14.50;28.70;;;;;;5032270;28;20792;-75
2023/02/22 11:37:28;;;;;;;32.33;16.20;;;14.50;27.70;;;;;;5031351;28;20959;-75
2023/02/22 11:40:12;;;;;;;29.43;15.23;;;14.60;27.60;;;;;;5030957;28;20440;-74
2023/02/22 11:42:38;;;;;;;28.70;15.40;;;14.70;27.80;;;;;;5030649;28;20383;-75
2023/02/22 11:45:08;;;;;;;45.42;18.30;;;14.70;27.70;;;;;;5030823;28;20788;-74
2023/02/22 11:47:34;;;;;;;27.10;14.82;;;14.70;27.40;;;;;;5031456;28;20449;-75
2023/02/22 11:50:01;;;;;;;23.00;12.85;;;14.80;26.30;;;;;;5031332;28;20407;-74
2023/02/22 11:52:43;;;;;;;20.50;12.43;;;14.90;24.30;;;;;;5031688;28;20395;-74
2023/02/22 11:55:25;;;;;;;24.38;13.65;;;14.80;24.90;;;;;;5031878;28;20446;-75
2023/02/22 11:58:27;;;;;;;22.48;13.00;;;14.90;25.70;;;;;;5034614;28;20472;-73
2023/02/22 12:01:16;;;;;;;23.95;13.32;;;15.00;25.00;;;;;;5037781;28;20399;-75
2023/02/22 12:03:57;;;;;;;29.02;15.73;;;15.10;24.70;;;;;;5033380;28;20706;-73
2023/02/22 12:06:47;;;;;;;23.87;14.17;;;15.30;24.90;;;;;;5031756;28;20476;-75
2023/02/22 12:09:25;;;;;;;22.67;14.50;;;15.30;24.10;;;;;;5032385;28;20498;-75
2023/02/22 12:12:10;;;;;;;27.20;13.95;;;15.40;23.50;;;;;;5034978;28;20806;-74
2023/02/22 12:15:08;;;;;;;23.90;14.07;;;15.40;23.10;;;;;;5034916;28;20406;-74
2023/02/22 12:17:55;;;;;;;25.50;14.40;;;15.40;24.40;;;;;;5001182;28;20641;-72
2023/02/22 12:20:42;;;;;;;26.95;14.02;;;15.40;23.70;;;;;;5034737;28;20379;-74
2023/02/22 12:23:18;;;;;;;26.30;14.10;;;15.50;23.10;;;;;;5025649;28;20407;-75
2023/02/22 12:26:00;;;;;;;22.25;14.45;;;15.60;22.70;;;;;;5036055;28;20387;-75
2023/02/22 12:28:39;;;;;;;24.27;15.07;;;15.60;22.90;;;;;;5037805;28;20387;-75
2023/02/22 12:31:47;;;;;;;25.88;14.90;;;15.50;23.50;;;;;;5037222;28;20386;-76
2023/02/22 12:34:16;;;;;;;27.10;14.83;;;15.50;23.10;;;;;;5037796;28;20383;-74
2023/02/22 12:36:49;;;;;;;22.85;13.52;;;15.60;23.10;;;;;;5037614;28;20372;-75
2023/02/22 12:39:21;;;;;;;28.05;14.35;;;15.80;22.00;;;;;;5036187;28;20391;-73
2023/02/22 12:41:53;;;;;;;27.83;14.10;;;15.80;22.10;;;;;;5034709;28;20379;-74
2023/02/22 12:44:25;;;;;;;25.70;13.15;;;15.80;21.70;;;;;;5032593;28;20400;-75
2023/02/22 12:46:53;;;;;;;24.65;13.10;;;15.90;21.20;;;;;;5036530;28;20481;-75